sensor_id;sensor_type;location;lat;lon;timestamp;P1;durP1;ratioP1;P2;durP2;ratioP2
12222;SDS011;6174;49.058;8.524;2023-03-01T05:01:58;11.33;;;10.20;;
12222;SDS011;6174;49.058;8.524;2023-03-01T05:04:26;11.90;;;10.43;;
12222;SDS011;6174;49.058;8.524;2023-03-01T05:06:53;11.90;;;10.73;;
12222;SDS011;6174;49.058;8.524;2023-03-01T05:09:20;11.83;;;10.57;;
12222;SDS011;6174;49.058;8.524;2023-03-01T05:11:47;11.37;;;10.17;;
12222;SDS011;6174;49.058;8.524;2023-03-01T05:14:15;11.73;;;10.40;;
12222;SDS011;6174;49.058;8.524;2023-03-01T05:16:42;12.17;;;10.97;;
12222;SDS011;6174;49.058;8.524;2023-03-01T05:19:10;11.93;;;10.73;;
12222;SDS011;6174;49.058;8.524;2023-03-01T05:21:40;12.77;;;11.43;;
12222;SDS011;6174;49.058;8.524;2023-03-01T05:24:21;13.07;;;11.17;;
12222;SDS011;6174;49.058;8.524;2023-03-01T05:26:47;12.30;;;11.10;;
12222;SDS011;6174;49.058;8.524;2023-03-01T05:29:16;12.53;;;11.23;;
12222;SDS011;6174;49.058;8.524;2023-03-01T05:31:44;11.50;;;10.37;;
12222;SDS011;6174;49.058;8.524;2023-03-01T05:34:12;13.47;;;11.07;;
12222;SDS011;6174;49.058;8.524;2023-03-01T05:36:38;12.47;;;11.20;;
12222;SDS011;6174;49.058;8.524;2023-03-01T05:39:05;11.77;;;10.50;;
12222;SDS011;6174;49.058;8.524;2023-03-01T05:41:32;12.83;;;11.33;;
12222;SDS011;6174;49.058;8.524;2023-03-01T05:43:58;12.50;;;11.20;;
12222;SDS011;6174;49.058;8.524;2023-03-01T05:46:25;12.77;;;11.30;;
12222;SDS011;6174;49.058;8.524;2023-03-01T05:48:52;11.73;;;10.53;;
12222;SDS011;6174;49.058;8.524;2023-03-01T05:51:20;12.50;;;11.13;;
12222;SDS011;6174;49.058;8.524;2023-03-01T05:53:47;12.03;;;10.67;;
12222;SDS011;6174;49.058;8.524;2023-03-01T05:56:14;13.87;;;11.70;;
12222;SDS011;6174;49.058;8.524;2023-03-01T05:58:40;12.37;;;11.07;;
12222;SDS011;6174;49.058;8.524;2023-03-01T06:01:10;11.30;;;10.10;;
12222;SDS011;6174;49.058;8.524;2023-03-01T06:03:38;13.13;;;11.07;;
12222;SDS011;6174;49.058;8.524;2023-03-01T06:06:05;12.73;;;11.43;;
12222;SDS011;6174;49.058;8.524;2023-03-01T06:11:01;12.13;;;10.83;;
12222;SDS011;6174;49.058;8.524;2023-03-01T06:13:27;12.13;;;10.93;;
12222;SDS011;6174;49.058;8.524;2023-03-01T06:15:54;13.07;;;11.73;;
12222;SDS011;6174;49.058;8.524;2023-03-01T06:18:21;13.90;;;11.40;;
12222;SDS011;6174;49.058;8.524;2023-03-01T06:20:52;12.70;;;11.13;;
12222;SDS011;6174;49.058;8.524;2023-03-01T06:23:19;12.67;;;11.13;;
12222;SDS011;6174;49.058;8.524;2023-03-01T06:25:48;12.50;;;11.17;;
12222;SDS011;6174;49.058;8.524;2023-03-01T06:28:15;13.83;;;11.67;;
12222;SDS011;6174;49.058;8.524;2023-03-01T06:30:42;12.77;;;11.27;;
12222;SDS011;6174;49.058;8.524;2023-03-01T06:33:09;12.67;;;11.33;;
12222;SDS011;6174;49.058;8.524;2023-03-01T06:35:35;16.33;;;13.50;;
12222;SDS011;6174;49.058;8.524;2023-03-01T06:38:03;13.80;;;12.30;;
12222;SDS011;6174;49.058;8.524;2023-03-01T06:40:31;13.03;;;11.60;;
12222;SDS011;6174;49.058;8.524;2023-03-01T06:43:01;12.57;;;11.23;;
12222;SDS011;6174;49.058;8.524;2023-03-01T06:45:28;14.10;;;12.23;;
12222;SDS011;6174;49.058;8.524;2023-03-01T06:48:00;13.17;;;11.87;;
12222;SDS011;6174;49.058;8.524;2023-03-01T06:50:28;13.03;;;11.73;;
12222;SDS011;6174;49.058;8.524;2023-03-01T06:52:55;13.07;;;11.70;;
12222;SDS011;6174;49.058;8.524;2023-03-01T06:55:22;13.13;;;11.83;;
12222;SDS011;6174;49.058;8.524;2023-03-01T06:57:53;16.57;;;12.33;;
12222;SDS011;6174;49.058;8.524;2023-03-01T07:00:22;13.47;;;11.57;;
12222;SDS011;6174;49.058;8.524;2023-03-01T07:02:50;15.93;;;14.23;;
12222;SDS011;6174;49.058;8.524;2023-03-01T07:05:17;12.77;;;11.47;;
12222;SDS011;6174;49.058;8.524;2023-03-01T07:07:44;13.67;;;12.27;;
12222;SDS011;6174;49.058;8.524;2023-03-01T07:10:10;13.47;;;12.07;;
12222;SDS011;6174;49.058;8.524;2023-03-01T07:12:38;14.57;;;12.07;;
12222;SDS011;6174;49.058;8.524;2023-03-01T07:15:07;12.97;;;11.17;;
12222;SDS011;6174;49.058;8.524;2023-03-01T07:17:36;14.40;;;11.60;;
12222;SDS011;6174;49.058;8.524;2023-03-01T07:20:03;13.30;;;12.00;;
12222;SDS011;6174;49.058;8.524;2023-03-01T07:22:31;13.97;;;12.53;;
12222;SDS011;6174;49.058;8.524;2023-03-01T07:24:58;13.77;;;12.37;;
12222;SDS011;6174;49.058;8.524;2023-03-01T07:27:24;14.20;;;12.70;;
12222;SDS011;6174;49.058;8.524;2023-03-01T07:29:51;13.43;;;12.00;;
12222;SDS011;6174;49.058;8.524;2023-03-01T07:32:18;15.73;;;13.80;;
12222;SDS011;6174;49.058;8.524;2023-03-01T07:34:46;12.93;;;11.63;;
12222;SDS011;6174;49.058;8.524;2023-03-01T07:37:12;13.30;;;12.00;;
12222;SDS011;6174;49.058;8.524;2023-03-01T07:39:39;13.77;;;12.10;;
12222;SDS011;6174;49.058;8.524;2023-03-01T07:42:07;13.53;;;12.13;;
12222;SDS011;6174;49.058;8.524;2023-03-01T07:44:33;13.10;;;11.20;;
12222;SDS011;6174;49.058;8.524;2023-03-01T07:47:00;12.63;;;11.43;;
12222;SDS011;6174;49.058;8.524;2023-03-01T07:49:27;12.50;;;11.27;;
12222;SDS011;6174;49.058;8.524;2023-03-01T07:51:55;14.53;;;12.20;;
12222;SDS011;6174;49.058;8.524;2023-03-01T07:54:22;13.27;;;11.87;;
12222;SDS011;6174;49.058;8.524;2023-03-01T07:56:48;12.93;;;11.50;;
12222;SDS011;6174;49.058;8.524;2023-03-01T07:59:15;13.10;;;11.27;;
12222;SDS011;6174;49.058;8.524;2023-03-01T08:01:42;12.40;;;11.10;;
12222;SDS011;6174;49.058;8.524;2023-03-01T08:04:09;12.50;;;10.90;;
12222;SDS011;6174;49.058;8.524;2023-03-01T08:06:35;13.63;;;11.90;;
12222;SDS011;6174;49.058;8.524;2023-03-01T08:09:03;13.10;;;11.47;;
12222;SDS011;6174;49.058;8.524;2023-03-01T08:11:30;13.27;;;11.27;;
12222;SDS011;6174;49.058;8.524;2023-03-01T08:13:57;15.83;;;11.97;;
12222;SDS011;6174;49.058;8.524;2023-03-01T08:16:24;14.17;;;11.30;;
12222;SDS011;6174;49.058;8.524;2023-03-01T08:18:50;13.37;;;12.00;;
12222;SDS011;6174;49.058;8.524;2023-03-01T08:21:17;15.87;;;11.60;;
12222;SDS011;6174;49.058;8.524;2023-03-01T08:23:44;17.13;;;12.00;;
12222;SDS011;6174;49.058;8.524;2023-03-01T08:26:13;13.03;;;11.73;;
12222;SDS011;6174;49.058;8.524;2023-03-01T08:28:42;12.90;;;11.60;;
12222;SDS011;6174;49.058;8.524;2023-03-01T08:31:16;12.87;;;11.43;;
12222;SDS011;6174;49.058;8.524;2023-03-01T08:33:44;13.97;;;11.77;;
12222;SDS011;6174;49.058;8.524;2023-03-01T08:36:15;13.33;;;10.90;;
12222;SDS011;6174;49.058;8.524;2023-03-01T08:38:42;12.73;;;11.07;;
12222;SDS011;6174;49.058;8.524;2023-03-01T08:41:09;12.30;;;10.97;;
12222;SDS011;6174;49.058;8.524;2023-03-01T08:43:37;14.13;;;12.20;;
12222;SDS011;6174;49.058;8.524;2023-03-01T08:46:04;13.70;;;11.50;;
12222;SDS011;6174;49.058;8.524;2023-03-01T08:48:31;13.70;;;12.10;;
12222;SDS011;6174;49.058;8.524;2023-03-01T08:51:06;12.70;;;11.40;;
12222;SDS011;6174;49.058;8.524;2023-03-01T08:53:33;12.70;;;11.40;;
12222;SDS011;6174;49.058;8.524;2023-03-01T08:56:00;14.00;;;12.50;;
12222;SDS011;6174;49.058;8.524;2023-03-01T08:58:28;12.63;;;11.33;;
12222;SDS011;6174;49.058;8.524;2023-03-01T09:00:56;12.73;;;11.43;;
12222;SDS011;6174;49.058;8.524;2023-03-01T09:03:23;14.13;;;12.67;;
12222;SDS011;6174;49.058;8.524;2023-03-01T09:05:50;13.07;;;11.77;;
12222;SDS011;6174;49.058;8.524;2023-03-01T09:08:17;13.63;;;12.17;;
12222;SDS011;6174;49.058;8.524;2023-03-01T09:10:44;14.07;;;12.57;;
12222;SDS011;6174;49.058;8.524;2023-03-01T09:13:11;12.53;;;11.27;;
12222;SDS011;6174;49.058;8.524;2023-03-01T09:15:38;13.87;;;12.47;;
12222;SDS011;6174;49.058;8.524;2023-03-01T09:18:06;15.17;;;12.77;;
12222;SDS011;6174;49.058;8.524;2023-03-01T09:20:33;14.17;;;12.53;;
12222;SDS011;6174;49.058;8.524;2023-03-01T09:23:00;14.40;;;12.90;;
12222;SDS011;6174;49.058;8.524;2023-03-01T09:25:27;13.63;;;12.20;;
12222;SDS011;6174;49.058;8.524;2023-03-01T09:27:54;13.57;;;12.17;;
12222;SDS011;6174;49.058;8.524;2023-03-01T09:30:21;13.27;;;11.87;;
12222;SDS011;6174;49.058;8.524;2023-03-01T09:32:49;13.90;;;12.43;;
12222;SDS011;6174;49.058;8.524;2023-03-01T09:35:17;13.37;;;11.60;;
12222;SDS011;6174;49.058;8.524;2023-03-01T09:37:44;14.17;;;12.67;;
12222;SDS011;6174;49.058;8.524;2023-03-01T09:40:12;14.57;;;12.17;;
12222;SDS011;6174;49.058;8.524;2023-03-01T09:42:46;14.70;;;12.30;;
12222;SDS011;6174;49.058;8.524;2023-03-01T09:45:21;13.70;;;12.40;;
12222;SDS011;6174;49.058;8.524;2023-03-01T09:47:53;14.73;;;13.17;;
12222;SDS011;6174;49.058;8.524;2023-03-01T09:50:23;13.90;;;12.57;;
12222;SDS011;6174;49.058;8.524;2023-03-01T09:52:53;13.70;;;12.27;;
12222;SDS011;6174;49.058;8.524;2023-03-01T09:55:26;13.60;;;12.17;;
12222;SDS011;6174;49.058;8.524;2023-03-01T09:57:59;14.17;;;12.67;;
12222;SDS011;6174;49.058;8.524;2023-03-01T10:00:34;14.67;;;13.17;;
12222;SDS011;6174;49.058;8.524;2023-03-01T10:03:08;13.53;;;12.23;;
12222;SDS011;6174;49.058;8.524;2023-03-01T10:05:46;14.87;;;13.30;;
12222;SDS011;6174;49.058;8.524;2023-03-01T10:08:23;13.37;;;12.07;;
12222;SDS011;6174;49.058;8.524;2023-03-01T10:11:00;14.13;;;12.70;;
12222;SDS011;6174;49.058;8.524;2023-03-01T10:13:29;13.30;;;11.93;;
12222;SDS011;6174;49.058;8.524;2023-03-01T10:16:05;14.20;;;12.70;;
12222;SDS011;6174;49.058;8.524;2023-03-01T10:18:38;14.43;;;12.67;;
12222;SDS011;6174;49.058;8.524;2023-03-01T10:21:12;13.87;;;12.40;;
12222;SDS011;6174;49.058;8.524;2023-03-01T10:23:41;14.80;;;13.07;;
12222;SDS011;6174;49.058;8.524;2023-03-01T10:26:12;15.60;;;13.90;;
12222;SDS011;6174;49.058;8.524;2023-03-01T10:28:51;14.43;;;12.77;;
12222;SDS011;6174;49.058;8.524;2023-03-01T10:31:26;14.27;;;12.77;;
12222;SDS011;6174;49.058;8.524;2023-03-01T10:34:02;14.53;;;12.80;;
12222;SDS011;6174;49.058;8.524;2023-03-01T10:36:32;14.57;;;12.83;;
12222;SDS011;6174;49.058;8.524;2023-03-01T10:38:59;17.93;;;13.13;;
12222;SDS011;6174;49.058;8.524;2023-03-01T10:41:40;15.03;;;13.50;;
12222;SDS011;6174;49.058;8.524;2023-03-01T10:44:34;14.20;;;12.80;;
12222;SDS011;6174;49.058;8.524;2023-03-01T10:47:14;13.27;;;11.97;;
12222;SDS011;6174;49.058;8.524;2023-03-01T10:49:56;14.47;;;12.97;;
12222;SDS011;6174;49.058;8.524;2023-03-01T10:52:33;15.70;;;12.97;;
12222;SDS011;6174;49.058;8.524;2023-03-01T10:55:02;14.90;;;13.30;;
12222;SDS011;6174;49.058;8.524;2023-03-01T10:57:46;16.43;;;14.83;;
12222;SDS011;6174;49.058;8.524;2023-03-01T11:00:17;15.97;;;13.77;;
12222;SDS011;6174;49.058;8.524;2023-03-01T11:02:51;17.50;;;15.47;;
12222;SDS011;6174;49.058;8.524;2023-03-01T11:05:28;13.97;;;12.53;;
12222;SDS011;6174;49.058;8.524;2023-03-01T11:08:00;14.93;;;13.33;;
12222;SDS011;6174;49.058;8.524;2023-03-01T11:10:29;15.07;;;13.57;;
12222;SDS011;6174;49.058;8.524;2023-03-01T11:13:07;14.93;;;13.53;;
12222;SDS011;6174;49.058;8.524;2023-03-01T11:15:35;15.77;;;14.13;;
12222;SDS011;6174;49.058;8.524;2023-03-01T11:18:17;17.13;;;12.53;;
12222;SDS011;6174;49.058;8.524;2023-03-01T11:20:46;14.40;;;13.00;;
12222;SDS011;6174;49.058;8.524;2023-03-01T11:23:17;14.67;;;13.17;;
12222;SDS011;6174;49.058;8.524;2023-03-01T11:25:46;14.43;;;12.93;;
12222;SDS011;6174;49.058;8.524;2023-03-01T11:28:23;14.13;;;12.63;;
12222;SDS011;6174;49.058;8.524;2023-03-01T11:30:57;15.40;;;13.73;;
12222;SDS011;6174;49.058;8.524;2023-03-01T11:33:30;14.87;;;13.37;;
12222;SDS011;6174;49.058;8.524;2023-03-01T11:36:05;15.67;;;12.87;;
12222;SDS011;6174;49.058;8.524;2023-03-01T11:38:41;14.30;;;12.80;;
12222;SDS011;6174;49.058;8.524;2023-03-01T11:41:11;15.20;;;13.70;;
12222;SDS011;6174;49.058;8.524;2023-03-01T11:43:44;14.50;;;13.00;;
12222;SDS011;6174;49.058;8.524;2023-03-01T11:49:33;14.77;;;13.37;;
12222;SDS011;6174;49.058;8.524;2023-03-01T11:52:21;13.90;;;12.53;;
12222;SDS011;6174;49.058;8.524;2023-03-01T11:55:03;14.50;;;12.90;;
12222;SDS011;6174;49.058;8.524;2023-03-01T11:57:49;15.17;;;13.67;;
12222;SDS011;6174;49.058;8.524;2023-03-01T12:00:32;14.17;;;12.77;;
12222;SDS011;6174;49.058;8.524;2023-03-01T12:06:06;14.60;;;13.20;;
12222;SDS011;6174;49.058;8.524;2023-03-01T12:08:54;15.43;;;13.83;;
12222;SDS011;6174;49.058;8.524;2023-03-01T12:11:41;13.90;;;12.50;;
12222;SDS011;6174;49.058;8.524;2023-03-01T12:14:30;14.70;;;12.50;;
12222;SDS011;6174;49.058;8.524;2023-03-01T12:17:19;15.57;;;14.03;;
12222;SDS011;6174;49.058;8.524;2023-03-01T12:19:59;16.37;;;14.67;;
12222;SDS011;6174;49.058;8.524;2023-03-01T12:22:40;14.53;;;13.03;;
12222;SDS011;6174;49.058;8.524;2023-03-01T12:25:21;15.07;;;13.47;;
12222;SDS011;6174;49.058;8.524;2023-03-01T12:27:59;15.70;;;13.17;;
12222;SDS011;6174;49.058;8.524;2023-03-01T12:30:43;15.53;;;13.47;;
12222;SDS011;6174;49.058;8.524;2023-03-01T12:33:22;14.57;;;13.07;;
12222;SDS011;6174;49.058;8.524;2023-03-01T12:36:07;13.90;;;12.57;;
12222;SDS011;6174;49.058;8.524;2023-03-01T12:38:50;13.73;;;12.43;;
12222;SDS011;6174;49.058;8.524;2023-03-01T12:41:32;15.83;;;13.33;;
12222;SDS011;6174;49.058;8.524;2023-03-01T12:44:27;14.33;;;12.87;;
12222;SDS011;6174;49.058;8.524;2023-03-01T12:47:07;14.47;;;13.00;;
12222;SDS011;6174;49.058;8.524;2023-03-01T12:49:45;15.03;;;13.23;;
12222;SDS011;6174;49.058;8.524;2023-03-01T12:52:19;14.80;;;13.20;;
12222;SDS011;6174;49.058;8.524;2023-03-01T12:54:49;14.83;;;13.33;;
12222;SDS011;6174;49.058;8.524;2023-03-01T12:57:18;14.93;;;13.23;;
12222;SDS011;6174;49.058;8.524;2023-03-01T13:00:00;15.03;;;13.37;;
12222;SDS011;6174;49.058;8.524;2023-03-01T13:02:36;14.67;;;13.17;;
12222;SDS011;6174;49.058;8.524;2023-03-01T13:05:17;14.47;;;12.90;;
12222;SDS011;6174;49.058;8.524;2023-03-01T13:07:52;14.17;;;12.67;;
12222;SDS011;6174;49.058;8.524;2023-03-01T13:10:24;14.43;;;12.93;;
12222;SDS011;6174;49.058;8.524;2023-03-01T13:13:01;13.97;;;12.60;;
12222;SDS011;6174;49.058;8.524;2023-03-01T13:15:38;14.03;;;12.30;;
12222;SDS011;6174;49.058;8.524;2023-03-01T13:20:58;13.70;;;12.40;;
12222;SDS011;6174;49.058;8.524;2023-03-01T13:23:28;14.73;;;12.63;;
12222;SDS011;6174;49.058;8.524;2023-03-01T13:26:04;13.73;;;12.43;;
12222;SDS011;6174;49.058;8.524;2023-03-01T13:28:48;14.10;;;12.70;;
12222;SDS011;6174;49.058;8.524;2023-03-01T13:34:45;14.53;;;13.03;;
12222;SDS011;6174;49.058;8.524;2023-03-01T13:37:21;13.33;;;12.13;;
12222;SDS011;6174;49.058;8.524;2023-03-01T13:40:05;14.20;;;12.80;;
12222;SDS011;6174;49.058;8.524;2023-03-01T13:43:27;14.77;;;12.60;;
12222;SDS011;6174;49.058;8.524;2023-03-01T13:45:58;15.07;;;13.57;;
12222;SDS011;6174;49.058;8.524;2023-03-01T13:48:26;14.23;;;12.83;;
12222;SDS011;6174;49.058;8.524;2023-03-01T13:50:56;13.97;;;12.63;;
12222;SDS011;6174;49.058;8.524;2023-03-01T13:53:33;14.23;;;12.73;;
12222;SDS011;6174;49.058;8.524;2023-03-01T13:56:07;13.40;;;12.10;;
12222;SDS011;6174;49.058;8.524;2023-03-01T13:58:46;14.70;;;13.07;;
12222;SDS011;6174;49.058;8.524;2023-03-01T14:01:21;13.53;;;12.17;;
12222;SDS011;6174;49.058;8.524;2023-03-01T14:03:53;13.33;;;11.97;;
12222;SDS011;6174;49.058;8.524;2023-03-01T14:06:24;14.50;;;13.00;;
12222;SDS011;6174;49.058;8.524;2023-03-01T14:09:00;14.20;;;12.80;;
12222;SDS011;6174;49.058;8.524;2023-03-01T14:14:42;14.20;;;12.70;;
12222;SDS011;6174;49.058;8.524;2023-03-01T14:17:30;13.20;;;11.90;;
12222;SDS011;6174;49.058;8.524;2023-03-01T14:20:09;14.70;;;13.30;;
12222;SDS011;6174;49.058;8.524;2023-03-01T14:22:40;14.27;;;12.97;;
12222;SDS011;6174;49.058;8.524;2023-03-01T14:25:16;15.90;;;13.43;;
12222;SDS011;6174;49.058;8.524;2023-03-01T14:27:50;14.10;;;12.67;;
12222;SDS011;6174;49.058;8.524;2023-03-01T14:30:22;14.10;;;12.60;;
12222;SDS011;6174;49.058;8.524;2023-03-01T14:32:53;14.27;;;12.87;;
12222;SDS011;6174;49.058;8.524;2023-03-01T14:35:21;14.33;;;12.97;;
12222;SDS011;6174;49.058;8.524;2023-03-01T14:37:49;12.43;;;11.20;;
12222;SDS011;6174;49.058;8.524;2023-03-01T14:40:21;13.73;;;12.43;;
12222;SDS011;6174;49.058;8.524;2023-03-01T14:42:50;14.13;;;12.70;;
12222;SDS011;6174;49.058;8.524;2023-03-01T14:45:18;14.20;;;12.80;;
12222;SDS011;6174;49.058;8.524;2023-03-01T14:47:47;13.47;;;12.17;;
12222;SDS011;6174;49.058;8.524;2023-03-01T14:50:19;15.10;;;13.00;;
12222;SDS011;6174;49.058;8.524;2023-03-01T14:52:50;14.57;;;13.17;;
12222;SDS011;6174;49.058;8.524;2023-03-01T14:55:20;14.10;;;12.70;;
12222;SDS011;6174;49.058;8.524;2023-03-01T14:57:51;13.50;;;11.70;;
12222;SDS011;6174;49.058;8.524;2023-03-01T15:00:23;14.03;;;12.57;;
12222;SDS011;6174;49.058;8.524;2023-03-01T15:02:54;14.17;;;12.73;;
12222;SDS011;6174;49.058;8.524;2023-03-01T15:05:24;12.77;;;11.50;;
12222;SDS011;6174;49.058;8.524;2023-03-01T15:07:54;14.37;;;12.90;;
12222;SDS011;6174;49.058;8.524;2023-03-01T15:10:23;13.60;;;12.20;;
12222;SDS011;6174;49.058;8.524;2023-03-01T15:12:52;13.90;;;12.50;;
12222;SDS011;6174;49.058;8.524;2023-03-01T15:15:20;13.80;;;12.40;;
12222;SDS011;6174;49.058;8.524;2023-03-01T15:18:13;15.37;;;13.77;;
12222;SDS011;6174;49.058;8.524;2023-03-01T15:20:42;13.53;;;12.20;;
12222;SDS011;6174;49.058;8.524;2023-03-01T15:23:18;13.20;;;11.97;;
12222;SDS011;6174;49.058;8.524;2023-03-01T15:25:48;13.07;;;11.77;;
12222;SDS011;6174;49.058;8.524;2023-03-01T15:28:21;13.47;;;12.07;;
12222;SDS011;6174;49.058;8.524;2023-03-01T15:30:51;14.40;;;13.00;;
12222;SDS011;6174;49.058;8.524;2023-03-01T15:33:30;12.43;;;11.27;;
12222;SDS011;6174;49.058;8.524;2023-03-01T15:35:59;13.47;;;12.10;;
12222;SDS011;6174;49.058;8.524;2023-03-01T15:38:29;12.80;;;11.50;;
12222;SDS011;6174;49.058;8.524;2023-03-01T15:41:03;13.20;;;11.90;;
12222;SDS011;6174;49.058;8.524;2023-03-01T15:43:39;12.77;;;11.47;;
12222;SDS011;6174;49.058;8.524;2023-03-01T15:46:14;12.87;;;11.53;;
12222;SDS011;6174;49.058;8.524;2023-03-01T15:48:50;13.13;;;11.83;;
12222;SDS011;6174;49.058;8.524;2023-03-01T15:51:21;13.00;;;11.57;;
12222;SDS011;6174;49.058;8.524;2023-03-01T15:53:53;12.27;;;11.07;;
12222;SDS011;6174;49.058;8.524;2023-03-01T15:56:20;13.47;;;12.00;;
12222;SDS011;6174;49.058;8.524;2023-03-01T15:58:47;13.20;;;11.80;;
12222;SDS011;6174;49.058;8.524;2023-03-01T16:01:14;12.87;;;11.67;;
12222;SDS011;6174;49.058;8.524;2023-03-01T16:03:43;12.77;;;11.57;;
12222;SDS011;6174;49.058;8.524;2023-03-01T16:06:12;14.20;;;12.60;;
12222;SDS011;6174;49.058;8.524;2023-03-01T16:08:39;13.67;;;12.30;;
12222;SDS011;6174;49.058;8.524;2023-03-01T16:11:08;13.17;;;11.87;;
12222;SDS011;6174;49.058;8.524;2023-03-01T16:13:40;13.87;;;12.37;;
12222;SDS011;6174;49.058;8.524;2023-03-01T16:16:07;13.53;;;12.27;;
12222;SDS011;6174;49.058;8.524;2023-03-01T16:18:37;14.17;;;12.87;;
12222;SDS011;6174;49.058;8.524;2023-03-01T16:21:04;13.70;;;12.30;;
12222;SDS011;6174;49.058;8.524;2023-03-01T16:23:32;13.13;;;11.77;;
12222;SDS011;6174;49.058;8.524;2023-03-01T16:25:59;13.00;;;11.80;;
12222;SDS011;6174;49.058;8.524;2023-03-01T16:28:26;13.47;;;12.07;;
12222;SDS011;6174;49.058;8.524;2023-03-01T16:30:53;13.00;;;11.70;;
12222;SDS011;6174;49.058;8.524;2023-03-01T16:33:20;13.57;;;12.20;;
12222;SDS011;6174;49.058;8.524;2023-03-01T16:35:46;13.60;;;11.87;;
12222;SDS011;6174;49.058;8.524;2023-03-01T16:38:14;13.83;;;12.43;;
12222;SDS011;6174;49.058;8.524;2023-03-01T16:40:42;14.93;;;13.43;;
12222;SDS011;6174;49.058;8.524;2023-03-01T16:43:13;13.50;;;11.93;;
12222;SDS011;6174;49.058;8.524;2023-03-01T16:45:40;13.20;;;11.80;;
12222;SDS011;6174;49.058;8.524;2023-03-01T16:48:09;13.30;;;11.67;;
12222;SDS011;6174;49.058;8.524;2023-03-01T16:50:36;12.27;;;11.07;;
12222;SDS011;6174;49.058;8.524;2023-03-01T16:53:03;13.77;;;12.33;;
12222;SDS011;6174;49.058;8.524;2023-03-01T16:55:30;13.27;;;11.87;;
12222;SDS011;6174;49.058;8.524;2023-03-01T16:57:59;14.07;;;12.17;;
12222;SDS011;6174;49.058;8.524;2023-03-01T17:00:26;13.50;;;12.10;;
12222;SDS011;6174;49.058;8.524;2023-03-01T17:02:53;13.63;;;12.07;;
12222;SDS011;6174;49.058;8.524;2023-03-01T17:05:20;13.60;;;12.20;;
12222;SDS011;6174;49.058;8.524;2023-03-01T17:07:48;12.23;;;10.90;;
12222;SDS011;6174;49.058;8.524;2023-03-01T17:10:15;13.03;;;11.67;;
12222;SDS011;6174;49.058;8.524;2023-03-01T17:12:42;13.37;;;10.97;;
12222;SDS011;6174;49.058;8.524;2023-03-01T17:15:10;13.07;;;11.13;;
12222;SDS011;6174;49.058;8.524;2023-03-01T17:17:37;13.57;;;11.80;;
12222;SDS011;6174;49.058;8.524;2023-03-01T17:20:05;13.37;;;12.07;;
12222;SDS011;6174;49.058;8.524;2023-03-01T17:22:32;13.17;;;11.00;;
12222;SDS011;6174;49.058;8.524;2023-03-01T17:24:59;12.63;;;11.43;;
12222;SDS011;6174;49.058;8.524;2023-03-01T17:27:26;13.50;;;12.10;;
12222;SDS011;6174;49.058;8.524;2023-03-01T17:29:53;13.53;;;11.67;;
12222;SDS011;6174;49.058;8.524;2023-03-01T17:32:21;13.53;;;12.00;;
12222;SDS011;6174;49.058;8.524;2023-03-01T17:34:48;11.77;;;10.63;;
12222;SDS011;6174;49.058;8.524;2023-03-01T17:37:15;12.30;;;11.10;;
12222;SDS011;6174;49.058;8.524;2023-03-01T17:39:41;12.17;;;10.97;;
12222;SDS011;6174;49.058;8.524;2023-03-01T17:42:08;13.07;;;11.77;;
12222;SDS011;6174;49.058;8.524;2023-03-01T17:44:35;12.57;;;11.23;;
12222;SDS011;6174;49.058;8.524;2023-03-01T17:47:02;12.23;;;11.03;;
12222;SDS011;6174;49.058;8.524;2023-03-01T17:49:30;11.67;;;10.57;;
12222;SDS011;6174;49.058;8.524;2023-03-01T17:51:58;11.97;;;10.77;;
12222;SDS011;6174;49.058;8.524;2023-03-01T17:54:25;13.57;;;12.17;;
12222;SDS011;6174;49.058;8.524;2023-03-01T17:56:52;14.37;;;13.00;;
12222;SDS011;6174;49.058;8.524;2023-03-01T17:59:19;13.63;;;11.90;;
12222;SDS011;6174;49.058;8.524;2023-03-01T18:01:46;12.67;;;11.23;;
12222;SDS011;6174;49.058;8.524;2023-03-01T18:04:13;13.07;;;11.77;;
12222;SDS011;6174;49.058;8.524;2023-03-01T18:06:41;13.40;;;12.00;;
12222;SDS011;6174;49.058;8.524;2023-03-01T18:09:08;13.13;;;11.47;;
12222;SDS011;6174;49.058;8.524;2023-03-01T18:11:35;12.27;;;11.00;;
12222;SDS011;6174;49.058;8.524;2023-03-01T18:14:02;12.83;;;11.53;;
12222;SDS011;6174;49.058;8.524;2023-03-01T18:16:29;12.10;;;10.90;;
12222;SDS011;6174;49.058;8.524;2023-03-01T18:18:57;12.40;;;11.10;;
12222;SDS011;6174;49.058;8.524;2023-03-01T18:21:25;13.47;;;12.07;;
12222;SDS011;6174;49.058;8.524;2023-03-01T18:23:53;11.73;;;10.53;;
12222;SDS011;6174;49.058;8.524;2023-03-01T18:26:20;13.03;;;11.67;;
12222;SDS011;6174;49.058;8.524;2023-03-01T18:28:49;13.20;;;11.80;;
12222;SDS011;6174;49.058;8.524;2023-03-01T18:31:17;12.70;;;11.43;;
12222;SDS011;6174;49.058;8.524;2023-03-01T18:33:46;13.43;;;12.00;;
12222;SDS011;6174;49.058;8.524;2023-03-01T18:36:15;14.33;;;11.67;;
12222;SDS011;6174;49.058;8.524;2023-03-01T18:38:44;12.63;;;11.33;;
12222;SDS011;6174;49.058;8.524;2023-03-01T18:41:12;13.97;;;11.93;;
12222;SDS011;6174;49.058;8.524;2023-03-01T18:43:39;14.97;;;12.90;;
12222;SDS011;6174;49.058;8.524;2023-03-01T18:46:06;13.23;;;11.90;;
12222;SDS011;6174;49.058;8.524;2023-03-01T18:48:33;14.50;;;13.00;;
12222;SDS011;6174;49.058;8.524;2023-03-01T18:51:10;15.77;;;13.50;;
12222;SDS011;6174;49.058;8.524;2023-03-01T18:53:38;15.43;;;13.83;;
12222;SDS011;6174;49.058;8.524;2023-03-01T18:56:05;15.67;;;13.90;;
12222;SDS011;6174;49.058;8.524;2023-03-01T18:58:34;17.47;;;15.67;;
12222;SDS011;6174;49.058;8.524;2023-03-01T19:01:01;20.47;;;16.97;;
12222;SDS011;6174;49.058;8.524;2023-03-01T19:03:32;16.27;;;14.67;;
12222;SDS011;6174;49.058;8.524;2023-03-01T19:05:59;15.40;;;13.57;;
12222;SDS011;6174;49.058;8.524;2023-03-01T19:08:26;16.00;;;13.90;;
12222;SDS011;6174;49.058;8.524;2023-03-01T19:10:56;16.80;;;14.17;;
12222;SDS011;6174;49.058;8.524;2023-03-01T19:13:24;13.43;;;12.03;;
12222;SDS011;6174;49.058;8.524;2023-03-01T19:16:00;14.90;;;13.10;;
12222;SDS011;6174;49.058;8.524;2023-03-01T19:18:37;14.37;;;12.90;;
12222;SDS011;6174;49.058;8.524;2023-03-01T19:21:05;15.37;;;12.60;;
12222;SDS011;6174;49.058;8.524;2023-03-01T19:23:34;14.10;;;11.83;;
12222;SDS011;6174;49.058;8.524;2023-03-01T19:26:03;13.50;;;11.40;;
12222;SDS011;6174;49.058;8.524;2023-03-01T19:28:32;13.70;;;11.97;;
12222;SDS011;6174;49.058;8.524;2023-03-01T19:31:01;14.00;;;11.93;;
12222;SDS011;6174;49.058;8.524;2023-03-01T19:33:30;15.53;;;11.80;;
12222;SDS011;6174;49.058;8.524;2023-03-01T19:35:58;13.90;;;12.27;;
12222;SDS011;6174;49.058;8.524;2023-03-01T19:38:26;12.87;;;11.47;;
12222;SDS011;6174;49.058;8.524;2023-03-01T19:40:53;13.47;;;11.90;;
12222;SDS011;6174;49.058;8.524;2023-03-01T19:43:20;14.70;;;12.43;;
12222;SDS011;6174;49.058;8.524;2023-03-01T19:45:49;14.47;;;12.97;;
12222;SDS011;6174;49.058;8.524;2023-03-01T19:48:18;15.10;;;12.90;;
12222;SDS011;6174;49.058;8.524;2023-03-01T19:50:45;14.30;;;12.70;;
12222;SDS011;6174;49.058;8.524;2023-03-01T19:53:12;15.67;;;14.07;;
12222;SDS011;6174;49.058;8.524;2023-03-01T19:55:39;16.27;;;13.80;;
12222;SDS011;6174;49.058;8.524;2023-03-01T19:58:07;15.60;;;12.83;;
12222;SDS011;6174;49.058;8.524;2023-03-01T20:00:35;14.93;;;13.33;;
12222;SDS011;6174;49.058;8.524;2023-03-01T20:03:03;19.57;;;15.53;;
12222;SDS011;6174;49.058;8.524;2023-03-01T20:05:32;15.50;;;13.00;;
12222;SDS011;6174;49.058;8.524;2023-03-01T20:08:00;15.03;;;13.17;;
12222;SDS011;6174;49.058;8.524;2023-03-01T20:10:27;20.80;;;16.60;;
12222;SDS011;6174;49.058;8.524;2023-03-01T20:12:55;13.77;;;12.07;;